Urb Buzo, Puerto Rico
Current Conditions -  °F | °C
As of 6:53 AM on Sunday 21 Dec 2014 (Local Time) from TJNR Reporting Station
Few Clouds Few Clouds  
Wind Chill: 77°   Ceiling: Unl
Heat Index: 79°   Visibility: 10mi
Dew Point: 68°   Wind: 10mph
Humidity: 74%   Direction: 70°ENE
Pressure: 30.06"   Gusts: NA
Location:  18.1494°N, 65.8294°W
Report Text: TJNR 211053Z AUTO 07009KT 10SM FEW031 25/20 A3006 RMK AO2 SLP178 T02500200 $
Loading
Personal Weather Stations






























Interactive Weather Map New forecast layout! Learn more

10-Day Weather Forecast

Advertisements
Track Severe Weather on mobile